createdAt,value
2018-11-06T00:03:47.474Z,8.20
2018-11-06T00:08:51.398Z,8.20
2018-11-06T00:13:54.923Z,8.30
2018-11-06T00:18:58.094Z,8.30
2018-11-06T00:24:01.253Z,8.30
2018-11-06T00:29:04.414Z,8.30
2018-11-06T00:34:07.625Z,8.30
2018-11-06T00:39:11.007Z,8.30
2018-11-06T00:44:14.170Z,8.30
2018-11-06T00:49:17.346Z,8.20
2018-11-06T00:54:20.557Z,8.30
2018-11-06T00:59:24.887Z,8.30
2018-11-06T01:04:28.036Z,8.20
2018-11-06T01:09:31.215Z,8.10
2018-11-06T01:14:34.447Z,8.00
2018-11-06T01:19:38.974Z,7.90
2018-11-06T01:24:42.214Z,7.80
2018-11-06T01:29:45.361Z,7.70
2018-11-06T01:34:48.530Z,7.60
2018-11-06T01:39:52.042Z,7.50
2018-11-06T01:44:55.236Z,7.50
2018-11-06T01:49:58.367Z,7.40
2018-11-06T01:55:02.351Z,7.30
2018-11-06T02:00:07.586Z,7.30
2018-11-06T02:05:13.131Z,7.30
2018-11-06T02:10:16.687Z,7.30
2018-11-06T02:15:19.845Z,7.10
2018-11-06T02:20:23.003Z,7.10
2018-11-06T02:25:26.170Z,7.10
2018-11-06T02:30:30.251Z,7.00
2018-11-06T02:35:33.419Z,7.00
2018-11-06T02:40:36.664Z,7.00
2018-11-06T02:45:39.848Z,6.90
2018-11-06T02:50:44.281Z,6.80
2018-11-06T02:55:53.509Z,6.80
2018-11-06T03:00:58.438Z,6.80
2018-11-06T03:06:08.579Z,6.80
2018-11-06T03:11:18.358Z,6.80
2018-11-06T03:16:45.924Z,6.80
2018-11-06T03:21:49.699Z,6.70
2018-11-06T03:26:54.014Z,6.50
2018-11-06T03:32:05.738Z,6.50
2018-11-06T03:37:09.050Z,6.50
2018-11-06T03:42:13.374Z,6.40
2018-11-06T03:47:16.768Z,6.40
2018-11-06T03:52:20.326Z,6.40
2018-11-06T03:57:28.874Z,6.30
2018-11-06T04:02:32.552Z,6.40
2018-11-06T04:07:35.858Z,6.50
2018-11-06T04:12:39.777Z,6.30
2018-11-06T04:17:44.391Z,6.20
2018-11-06T04:22:47.548Z,6.20
2018-11-06T04:27:50.780Z,6.40
2018-11-06T04:32:53.950Z,6.50
2018-11-06T04:37:57.119Z,6.40
2018-11-06T04:43:00.354Z,6.50
2018-11-06T04:48:03.542Z,6.30
2018-11-06T04:53:06.738Z,6.40
2018-11-06T04:58:09.956Z,6.30
2018-11-06T05:03:13.157Z,6.40
2018-11-06T05:08:16.349Z,6.50
2018-11-06T05:13:19.545Z,6.50
2018-11-06T05:18:23.370Z,6.50
2018-11-06T05:23:26.575Z,6.70
2018-11-06T05:28:30.190Z,6.70
2018-11-06T05:33:33.402Z,6.70
2018-11-06T05:38:36.635Z,6.70
2018-11-06T05:43:40.297Z,6.70
2018-11-06T05:48:43.533Z,6.80
2018-11-06T05:53:47.350Z,6.80
2018-11-06T05:58:50.579Z,6.80
2018-11-06T06:03:53.781Z,6.80
2018-11-06T06:08:56.982Z,6.70
2018-11-06T06:14:00.177Z,6.70
2018-11-06T06:19:03.434Z,6.60
2018-11-06T06:24:06.657Z,6.70
2018-11-06T06:29:09.871Z,6.70
2018-11-06T06:34:13.102Z,6.70
2018-11-06T06:39:16.317Z,6.70
2018-11-06T06:44:19.561Z,6.60
2018-11-06T06:49:22.750Z,6.60
2018-11-06T06:54:26.238Z,6.60
2018-11-06T06:59:31.586Z,6.70
2018-11-06T07:04:36.015Z,6.80
2018-11-06T07:09:39.278Z,6.80
2018-11-06T07:14:42.497Z,6.90
2018-11-06T07:19:47.694Z,7.00
2018-11-06T07:24:50.883Z,7.10
2018-11-06T07:29:54.066Z,7.00
2018-11-06T07:34:57.412Z,7.10
2018-11-06T07:40:00.698Z,7.20
2018-11-06T07:45:03.970Z,7.20
2018-11-06T07:50:08.089Z,7.40
2018-11-06T07:55:12.904Z,7.40
2018-11-06T08:00:18.567Z,7.60
2018-11-06T08:05:21.933Z,7.70
2018-11-06T08:10:25.106Z,7.80
2018-11-06T08:15:28.296Z,8.00
2018-11-06T08:20:31.581Z,8.30
2018-11-06T08:25:34.763Z,8.60
2018-11-06T08:30:38.981Z,8.80
2018-11-06T08:35:42.234Z,9.10
2018-11-06T08:40:45.447Z,9.40
2018-11-06T08:45:48.650Z,9.70
2018-11-06T08:50:51.919Z,10.10
2018-11-06T08:55:55.222Z,10.30
2018-11-06T09:00:58.487Z,10.40
2018-11-06T09:06:01.723Z,10.50
2018-11-06T09:11:05.136Z,10.60
2018-11-06T09:16:08.422Z,10.60
2018-11-06T09:21:13.900Z,10.80
2018-11-06T09:26:17.188Z,11.00
2018-11-06T09:31:21.055Z,11.20
2018-11-06T09:36:24.287Z,11.10
2018-11-06T09:41:27.699Z,11.00
2018-11-06T09:46:30.827Z,11.00
2018-11-06T09:51:34.222Z,11.10
2018-11-06T09:56:37.454Z,11.10
2018-11-06T10:01:40.686Z,11.00
2018-11-06T10:06:44.458Z,11.10
2018-11-06T10:11:47.499Z,11.10
2018-11-06T10:16:50.919Z,11.20
2018-11-06T10:21:54.223Z,11.30
2018-11-06T10:26:57.476Z,11.50
2018-11-06T10:32:00.743Z,11.70
2018-11-06T10:37:04.035Z,11.90
2018-11-06T10:42:07.263Z,12.10
2018-11-06T10:47:10.492Z,12.30
2018-11-06T10:52:13.674Z,12.50
2018-11-06T10:57:16.918Z,12.60
2018-11-06T11:02:23.390Z,12.80
2018-11-06T11:07:26.633Z,13.00
2018-11-06T11:12:30.297Z,13.20
2018-11-06T11:17:33.690Z,13.20
2018-11-06T11:22:36.919Z,13.30
2018-11-06T11:27:40.811Z,13.30
2018-11-06T11:32:45.666Z,13.40
2018-11-06T11:37:48.996Z,13.50
2018-11-06T11:42:52.152Z,13.80
2018-11-06T11:47:55.350Z,14.00
2018-11-06T11:52:58.753Z,14.30
2018-11-06T11:58:02.010Z,14.30
2018-11-06T12:03:05.922Z,14.40
2018-11-06T12:08:09.226Z,14.50
2018-11-06T12:13:13.798Z,14.50
2018-11-06T12:18:17.792Z,14.60
2018-11-06T12:23:21.064Z,14.70
2018-11-06T12:28:24.378Z,14.80
2018-11-06T12:33:27.736Z,14.90
2018-11-06T12:38:31.066Z,15.10
2018-11-06T12:43:34.365Z,15.30
2018-11-06T12:48:37.882Z,15.30
2018-11-06T12:53:41.094Z,15.30
2018-11-06T12:58:50.152Z,15.30
2018-11-06T13:03:53.375Z,15.40
2018-11-06T13:08:58.476Z,15.50
2018-11-06T13:14:02.596Z,15.40
2018-11-06T13:19:07.005Z,15.30
2018-11-06T13:24:10.793Z,15.30
2018-11-06T13:29:19.643Z,15.20
2018-11-06T13:34:23.330Z,15.20
2018-11-06T13:39:26.570Z,15.30
2018-11-06T13:44:30.378Z,15.30
2018-11-06T13:49:33.197Z,15.20
2018-11-06T13:54:37.958Z,15.20
2018-11-06T13:59:41.240Z,15.10
2018-11-06T14:04:51.643Z,15.20
2018-11-06T14:09:57.838Z,15.20
2018-11-06T14:15:02.126Z,15.20
2018-11-06T14:20:11.107Z,15.30
2018-11-06T14:25:15.478Z,15.40
2018-11-06T14:30:20.130Z,15.40
2018-11-06T14:35:23.576Z,15.30
2018-11-06T14:40:26.806Z,15.10
2018-11-06T14:45:30.115Z,15.00
2018-11-06T14:50:33.344Z,14.90
2018-11-06T14:55:45.965Z,14.80
2018-11-06T15:10:29.165Z,14.30
2018-11-06T15:15:35.637Z,14.00
2018-11-06T15:20:39.922Z,13.80
2018-11-06T15:25:43.528Z,13.60
2018-11-06T15:30:49.072Z,13.50
2018-11-06T15:35:52.784Z,13.40
2018-11-06T15:40:57.423Z,13.20
2018-11-06T15:46:00.643Z,13.00
2018-11-06T15:51:06.446Z,12.80
2018-11-06T15:56:10.213Z,12.70
2018-11-06T16:01:13.459Z,12.60
2018-11-06T16:06:16.703Z,12.40
2018-11-06T16:11:23.196Z,12.30
2018-11-06T16:16:26.427Z,12.10
2018-11-06T16:21:34.314Z,12.10
2018-11-06T16:26:49.654Z,12.00
2018-11-06T16:31:52.892Z,11.80
2018-11-06T16:36:56.289Z,11.80
2018-11-06T16:42:34.209Z,11.60
2018-11-06T16:48:01.610Z,11.60
2018-11-06T16:53:07.082Z,11.60
2018-11-06T16:58:10.356Z,11.50
2018-11-06T17:03:18.050Z,11.40
2018-11-06T17:08:22.337Z,11.30
2018-11-06T17:13:30.321Z,11.20
2018-11-06T17:19:11.919Z,11.30
2018-11-06T17:24:18.624Z,11.30
2018-11-06T17:29:30.160Z,11.30
2018-11-06T17:34:40.333Z,11.40
2018-11-06T17:39:54.727Z,11.30
2018-11-06T17:45:01.755Z,11.20
2018-11-06T17:50:07.440Z,11.20
2018-11-06T17:55:45.251Z,11.20
2018-11-06T18:00:56.602Z,11.10
2018-11-06T18:06:05.466Z,11.00
2018-11-06T18:11:09.234Z,11.10
2018-11-06T18:16:31.247Z,10.80
2018-11-06T18:21:49.720Z,11.00
2018-11-06T18:26:55.378Z,11.00
2018-11-06T18:31:59.524Z,11.10
2018-11-06T18:37:03.391Z,11.10
2018-11-06T18:42:07.295Z,11.10
2018-11-06T18:47:11.284Z,11.00
2018-11-06T18:52:14.853Z,10.80
2018-11-06T18:57:19.247Z,10.70
2018-11-06T19:02:23.089Z,10.80
2018-11-06T19:07:26.519Z,11.60
2018-11-06T19:12:30.222Z,12.10
2018-11-06T19:17:34.974Z,12.30
2018-11-06T19:22:39.202Z,12.40
2018-11-06T19:27:42.546Z,12.60
2018-11-06T19:32:51.026Z,12.60
2018-11-06T19:37:54.633Z,12.90
2018-11-06T19:42:58.833Z,13.30
2018-11-06T19:53:43.786Z,13.50
2018-11-06T19:58:46.959Z,13.30
2018-11-06T20:03:53.307Z,13.30
2018-11-06T20:08:57.388Z,13.20
2018-11-06T20:14:00.884Z,13.20
2018-11-06T20:19:07.866Z,13.20
2018-11-06T20:24:14.188Z,13.20
2018-11-06T20:29:17.426Z,13.20
2018-11-06T20:34:21.908Z,13.40
2018-11-06T20:39:25.176Z,13.20
2018-11-06T20:44:28.362Z,13.00
2018-11-06T20:55:10.815Z,12.80
2018-11-06T21:00:19.848Z,12.60
2018-11-06T21:05:23.070Z,12.60
2018-11-06T21:10:27.963Z,12.50
2018-11-06T21:15:31.191Z,12.30
2018-11-06T21:20:34.428Z,12.10
2018-11-06T21:25:38.266Z,11.90
2018-11-06T21:30:41.462Z,11.60
2018-11-06T21:35:44.734Z,11.40
2018-11-06T21:40:48.015Z,11.20
2018-11-06T21:45:51.239Z,11.10
2018-11-06T21:50:54.463Z,11.00
2018-11-06T21:55:57.667Z,10.90
2018-11-06T22:01:00.872Z,10.70
2018-11-06T22:06:04.299Z,10.70
2018-11-06T22:11:08.102Z,10.70
2018-11-06T22:16:11.351Z,10.80
2018-11-06T22:21:14.794Z,10.80
2018-11-06T22:26:18.452Z,10.80
2018-11-06T22:31:21.739Z,10.80
2018-11-06T22:36:24.911Z,10.70
2018-11-06T22:41:28.087Z,10.60
2018-11-06T22:46:32.005Z,10.50
2018-11-06T22:51:35.206Z,10.30
2018-11-06T22:56:38.361Z,10.40
2018-11-06T23:01:41.558Z,10.50
2018-11-06T23:06:44.894Z,10.40
2018-11-06T23:11:47.999Z,10.30
2018-11-06T23:16:51.214Z,10.30
2018-11-06T23:21:54.482Z,10.40
2018-11-06T23:26:57.661Z,10.50
2018-11-06T23:32:01.098Z,10.40
2018-11-06T23:37:04.314Z,10.40
2018-11-06T23:42:07.463Z,10.60
2018-11-06T23:47:10.634Z,10.90
2018-11-06T23:52:14.560Z,10.90
2018-11-06T23:57:17.794Z,10.70
